Shin Mei Maru — JG5617 — position and weather

sailwx.info

Track history (hours):
 
Tides and Currents Weather Stations Pressure Air Temp Water Temp Dewpoint Dewpoint Depression Visibility Wind Speed Wind Dir Waves Ship Positions

Shin Mei Maru

Last reported at 2016-May-28 21:08 UTC. Time now 2016-May-29 19:12 UTC.
Position N 36°53' E 141°09'.

Length 160 m; draft 6.7 m.

Type: Cargo ship. MMSI: 431100922.

Date/timePositionNaut miles runAvg speedWind from/ knotsBaromVisibWave heightAir tempDewpointWater temp
2016-May-28 21:08N 36°53' E 141°09'1417.4
2016-May-28 20:19N 36°38' E 141°07'1417.5
2016-May-28 19:32N 36°25' E 141°05'1817.8
2016-May-28 18:33N 36°07' E 141°03'1817.5
2016-May-28 17:31N 35°49' E 141°00'1717.7
2016-May-28 16:33N 35°33' E 140°55'2019.9
2016-May-28 15:33N 35°17' E 140°40'2221.8
2016-May-28 14:31N 35°01' E 140°20'2021.1
2016-May-28 13:33N 34°51' E 139°59'1615.9
2016-May-28 12:33N 34°59' E 139°42'1716.7
2016-May-28 11:33N 35°15' E 139°46'1211.7
2016-May-28 10:34N 35°27' E 139°46'1111.3
2016-May-28 09:33N 35°38' E 139°46'0 0.1
2016-May-28 08:33N 35°38' E 139°46'0 0.0
2016-May-28 07:33N 35°38' E 139°46'0 0.0
2016-May-28 06:30N 35°38' E 139°46'0 0.0
2016-May-28 05:33N 35°38' E 139°46'0 0.0
2016-May-28 04:33N 35°38' E 139°46'5 5.3
2016-May-28 03:33N 35°34' E 139°49'1413.6
2016-May-28 02:33N 35°21' E 139°45'1313.1
2016-May-28 01:33N 35°08' E 139°45'2019.4
2016-May-28 00:30N 34°54' E 139°27'22917.7
2016-May-27 11:32N 33°53' E 134°59'1919.3
2016-May-27 10:33N 34°12' E 134°58'2019.8
2016-May-27 09:33N 34°29' E 135°09'1514.9
2016-May-27 08:33N 34°37' E 135°25'0 0.1
2016-May-27 06:24N 34°37' E 135°25'0 0.0
2016-May-27 05:30N 34°37' E 135°25'0 0.0
2016-May-27 04:24N 34°37' E 135°25'0 0.0
2016-May-27 03:30N 34°37' E 135°25'0 0.0
2016-May-27 02:24N 34°37' E 135°25'0 0.0
2016-May-27 01:30N 34°37' E 135°25'3 3.2
2016-May-27 00:33N 34°36' E 135°21'2 2.3
2016-May-26 23:33N 34°35' E 135°19'1717.5
2016-May-26 22:33N 34°22' E 135°04'1615.8
2016-May-26 21:33N 34°07' E 134°60'22414.8
2016-May-26 06:22N 34°56' E 139°25'1517.9
2016-May-26 05:32N 35°05' E 139°40'1413.8
2016-May-26 04:33N 35°18' E 139°45'1414.0
2016-May-26 03:33N 35°30' E 139°51'9 8.7
2016-May-26 02:33N 35°38' E 139°46'0 0.0
2016-May-26 01:25N 35°38' E 139°46'0 0.0
2016-May-26 00:31N 35°38' E 139°46'0 0.0
2016-May-25 23:31N 35°38' E 139°46'0 0.0
2016-May-25 22:22N 35°38' E 139°46'0 0.1
2016-May-25 21:33N 35°38' E 139°46'1211.7
2016-May-25 20:34N 35°27' E 139°49'1111.4
2016-May-25 19:34N 35°15' E 139°47'1716.9
2016-May-25 18:33N 34°59' E 139°43'1414.2
2016-May-25 17:33N 34°54' E 139°59'1817.9
2016-May-25 16:33N 35°03' E 140°18'1716.6
2016-May-25 15:33N 35°13' E 140°34'1918.8
2016-May-25 14:32N 35°28' E 140°48'1919.0
2016-May-25 13:32N 35°45' E 141°00'2119.3
2016-May-25 12:28N 36°05' E 141°04'3819.6
2016-May-25 10:33N 36°43' E 141°08'108 9.6
2016-May-24 23:19N 38°27' E 141°46'1719.9
2016-May-24 22:26N 38°43' E 141°54'  
2016-May-21 20:10N 36°45' E 141°08'1419.3
2016-May-21 19:26N 36°31' E 141°06'2419.0
2016-May-21 18:09N 36°07' E 141°03'1818.6
2016-May-21 17:10N 35°49' E 141°00'1118.4
2016-May-21 16:33N 35°38' E 140°57'1918.9
2016-May-21 15:33N 35°22' E 140°43'2320.4
2016-May-21 14:24N 35°04' E 140°25'1719.9
2016-May-21 13:34N 34°55' E 140°08'1918.5
2016-May-21 12:31N 34°51' E 139°45'1819.1
2016-May-21 11:33N 35°09' E 139°45'1414.0
2016-May-21 10:33N 35°23' E 139°42'1313.4
2016-May-21 09:33N 35°36' E 139°47'2 2.3
2016-May-21 08:33N 35°38' E 139°46'0 0.0
2016-May-21 07:33N 35°38' E 139°46'0 0.0
2016-May-21 06:33N 35°38' E 139°46'0 0.0
2016-May-21 05:33N 35°38' E 139°46'0 0.0
2016-May-21 04:33N 35°38' E 139°46'6 6.1
2016-May-21 03:33N 35°33' E 139°50'1414.3
2016-May-21 02:33N 35°20' E 139°44'1414.4
2016-May-21 01:33N 35°05' E 139°44'2219.4
2016-May-21 00:25N 34°52' E 139°23'22617.4
2016-May-20 11:28N 33°52' E 134°59'1820.1
2016-May-20 10:34N 34°10' E 134°59'1717.2
2016-May-20 09:33N 34°26' E 135°07'1716.8
2016-May-20 08:33N 34°36' E 135°23'2 1.6
2016-May-20 07:28N 34°37' E 135°25'0 0.0
2016-May-20 06:28N 34°37' E 135°25'0 0.0
2016-May-20 04:28N 34°37' E 135°25'0 0.0
2016-May-20 03:28N 34°37' E 135°25'0 0.0
2016-May-20 02:22N 34°37' E 135°25'0 0.0
2016-May-20 01:28N 34°37' E 135°25'0 0.0
2016-May-20 00:22N 34°37' E 135°25'6 8.0
2016-May-19 23:33N 34°36' E 135°17'1817.9
2016-May-19 22:33N 34°22' E 135°03'1817.5
2016-May-19 21:33N 34°05' E 134°59'23315.2
2016-May-19 06:16N 35°01' E 139°34'1419.5
2016-May-19 05:33N 35°11' E 139°46'1413.7
2016-May-19 04:33N 35°24' E 139°43'1212.1
2016-May-19 03:33N 35°36' E 139°46'2 2.0
2016-May-19 02:31N 35°38' E 139°46'0 0.0
2016-May-19 01:31N 35°38' E 139°46'0 0.0
2016-May-19 00:28N 35°38' E 139°46'0 0.0
2016-May-18 23:31N 35°38' E 139°46'0 0.0
2016-May-18 22:31N 35°38' E 139°46'1 1.3
2016-May-18 21:33N 35°37' E 139°46'  
Track history (hours):
 
Tides and Currents Weather Stations Pressure Air Temp Water Temp Dewpoint Dewpoint Depression Visibility Wind Speed Wind Dir Waves Ship Positions

Shin Mei Maru

Last reported at 2016-May-28 21:08 UTC. Time now 2016-May-29 19:12 UTC.
Position N 36°53' E 141°09'.

Length 160 m; draft 6.7 m.

Type: Cargo ship. MMSI: 431100922.

Date/timePositionNaut miles runAvg speedWind from/ knotsBaromVisibWave heightAir tempDewpointWater temp
2016-May-28 21:08N 36°53' E 141°09'1417.4
2016-May-28 20:19N 36°38' E 141°07'1417.5
2016-May-28 19:32N 36°25' E 141°05'1817.8
2016-May-28 18:33N 36°07' E 141°03'1817.5
2016-May-28 17:31N 35°49' E 141°00'1717.7
2016-May-28 16:33N 35°33' E 140°55'2019.9
2016-May-28 15:33N 35°17' E 140°40'2221.8
2016-May-28 14:31N 35°01' E 140°20'2021.1
2016-May-28 13:33N 34°51' E 139°59'1615.9
2016-May-28 12:33N 34°59' E 139°42'1716.7
2016-May-28 11:33N 35°15' E 139°46'1211.7
2016-May-28 10:34N 35°27' E 139°46'1111.3
2016-May-28 09:33N 35°38' E 139°46'0 0.1
2016-May-28 08:33N 35°38' E 139°46'0 0.0
2016-May-28 07:33N 35°38' E 139°46'0 0.0
2016-May-28 06:30N 35°38' E 139°46'0 0.0
2016-May-28 05:33N 35°38' E 139°46'0 0.0
2016-May-28 04:33N 35°38' E 139°46'5 5.3
2016-May-28 03:33N 35°34' E 139°49'1413.6
2016-May-28 02:33N 35°21' E 139°45'1313.1
2016-May-28 01:33N 35°08' E 139°45'2019.4
2016-May-28 00:30N 34°54' E 139°27'22917.7
2016-May-27 11:32N 33°53' E 134°59'1919.3
2016-May-27 10:33N 34°12' E 134°58'2019.8
2016-May-27 09:33N 34°29' E 135°09'1514.9
2016-May-27 08:33N 34°37' E 135°25'0 0.1
2016-May-27 06:24N 34°37' E 135°25'0 0.0
2016-May-27 05:30N 34°37' E 135°25'0 0.0
2016-May-27 04:24N 34°37' E 135°25'0 0.0
2016-May-27 03:30N 34°37' E 135°25'0 0.0
2016-May-27 02:24N 34°37' E 135°25'0 0.0
2016-May-27 01:30N 34°37' E 135°25'3 3.2
2016-May-27 00:33N 34°36' E 135°21'2 2.3
2016-May-26 23:33N 34°35' E 135°19'1717.5
2016-May-26 22:33N 34°22' E 135°04'1615.8
2016-May-26 21:33N 34°07' E 134°60'22414.8
2016-May-26 06:22N 34°56' E 139°25'1517.9
2016-May-26 05:32N 35°05' E 139°40'1413.8
2016-May-26 04:33N 35°18' E 139°45'1414.0
2016-May-26 03:33N 35°30' E 139°51'9 8.7
2016-May-26 02:33N 35°38' E 139°46'0 0.0
2016-May-26 01:25N 35°38' E 139°46'0 0.0
2016-May-26 00:31N 35°38' E 139°46'0 0.0
2016-May-25 23:31N 35°38' E 139°46'0 0.0
2016-May-25 22:22N 35°38' E 139°46'0 0.1
2016-May-25 21:33N 35°38' E 139°46'1211.7
2016-May-25 20:34N 35°27' E 139°49'1111.4
2016-May-25 19:34N 35°15' E 139°47'1716.9
2016-May-25 18:33N 34°59' E 139°43'1414.2
2016-May-25 17:33N 34°54' E 139°59'1817.9
2016-May-25 16:33N 35°03' E 140°18'1716.6
2016-May-25 15:33N 35°13' E 140°34'1918.8
2016-May-25 14:32N 35°28' E 140°48'1919.0
2016-May-25 13:32N 35°45' E 141°00'2119.3
2016-May-25 12:28N 36°05' E 141°04'3819.6
2016-May-25 10:33N 36°43' E 141°08'108 9.6
2016-May-24 23:19N 38°27' E 141°46'1719.9
2016-May-24 22:26N 38°43' E 141°54'  
2016-May-21 20:10N 36°45' E 141°08'1419.3
2016-May-21 19:26N 36°31' E 141°06'2419.0
2016-May-21 18:09N 36°07' E 141°03'1818.6
2016-May-21 17:10N 35°49' E 141°00'1118.4
2016-May-21 16:33N 35°38' E 140°57'1918.9
2016-May-21 15:33N 35°22' E 140°43'2320.4
2016-May-21 14:24N 35°04' E 140°25'1719.9
2016-May-21 13:34N 34°55' E 140°08'1918.5
2016-May-21 12:31N 34°51' E 139°45'1819.1
2016-May-21 11:33N 35°09' E 139°45'1414.0
2016-May-21 10:33N 35°23' E 139°42'1313.4
2016-May-21 09:33N 35°36' E 139°47'2 2.3
2016-May-21 08:33N 35°38' E 139°46'0 0.0
2016-May-21 07:33N 35°38' E 139°46'0 0.0
2016-May-21 06:33N 35°38' E 139°46'0 0.0
2016-May-21 05:33N 35°38' E 139°46'0 0.0
2016-May-21 04:33N 35°38' E 139°46'6 6.1
2016-May-21 03:33N 35°33' E 139°50'1414.3
2016-May-21 02:33N 35°20' E 139°44'1414.4
2016-May-21 01:33N 35°05' E 139°44'2219.4
2016-May-21 00:25N 34°52' E 139°23'22617.4
2016-May-20 11:28N 33°52' E 134°59'1820.1
2016-May-20 10:34N 34°10' E 134°59'1717.2
2016-May-20 09:33N 34°26' E 135°07'1716.8
2016-May-20 08:33N 34°36' E 135°23'2 1.6
2016-May-20 07:28N 34°37' E 135°25'0 0.0
2016-May-20 06:28N 34°37' E 135°25'0 0.0
2016-May-20 04:28N 34°37' E 135°25'0 0.0
2016-May-20 03:28N 34°37' E 135°25'0 0.0
2016-May-20 02:22N 34°37' E 135°25'0 0.0
2016-May-20 01:28N 34°37' E 135°25'0 0.0
2016-May-20 00:22N 34°37' E 135°25'6 8.0
2016-May-19 23:33N 34°36' E 135°17'1817.9
2016-May-19 22:33N 34°22' E 135°03'1817.5
2016-May-19 21:33N 34°05' E 134°59'23315.2
2016-May-19 06:16N 35°01' E 139°34'1419.5
2016-May-19 05:33N 35°11' E 139°46'1413.7
2016-May-19 04:33N 35°24' E 139°43'1212.1
2016-May-19 03:33N 35°36' E 139°46'2 2.0
2016-May-19 02:31N 35°38' E 139°46'0 0.0
2016-May-19 01:31N 35°38' E 139°46'0 0.0
2016-May-19 00:28N 35°38' E 139°46'0 0.0
2016-May-18 23:31N 35°38' E 139°46'0 0.0
2016-May-18 22:31N 35°38' E 139°46'1 1.3
2016-May-18 21:33N 35°37' E 139°46'  

Dump ship's entire track history